»·PEaware :: N757VB KBFL-KSMX

N757VB :: KBFL-KSMX

FLIGHT INFORMATION

Flight Status: Arrived
Operator: Privately registered:
United States
More flights under this callsign
Pilot: Daniel P. (20103)
Aircraft: CESSNA 182 SKYLANE
(C182)
More flights by this aircraft type
Origin: KBFL Meadows
United States
Destination: KSMX Santa Maria Pub/Capt Hancock
United States
More flights between these airports :: More routes between these airports
Route: FLW
File this flight plan on PilotEdge
Remarks:
Altitude:
(Current/Filed)
8,500ft
Speed:
(Current/Filed)
120kts
Departed: 18-Sep-18 12:22 PM
Arrived: 18-Sep-18 01:04 PM
Distance/Time
Traveled:
75nm/0:42
Distance/Time
To Go:
Arrived

Flight Plot

Page will automatically refresh every two minutes.


Map Options




Map Legend


Flown Route
Filed Route
Departure Airport
Arrival Airport
Navaid (VOR, NDB)
Fix

Horizontal Profiles

Position Reports

Time Latitude Longitude Heading Altitude Ground
Speed
18-Sep-18 11:59 35.426247 -119.042023 359 510ft 0kts
18-Sep-18 12:07 35.426253 -119.042023 359 510ft 0kts
18-Sep-18 12:08 35.426254 -119.042023 359 510ft 0kts
18-Sep-18 12:09 35.426256 -119.042023 359 510ft 0kts
18-Sep-18 12:10 35.426257 -119.042023 359 510ft 0kts
18-Sep-18 12:11 35.426258 -119.042023 359 510ft 0kts
18-Sep-18 12:12 35.426259 -119.042023 359 510ft 0kts
18-Sep-18 12:13 35.426260 -119.042023 359 510ft 0kts
18-Sep-18 12:14 35.426261 -119.042023 359 510ft 0kts
18-Sep-18 12:15 35.426262 -119.042023 359 510ft 0kts
18-Sep-18 12:16 35.426263 -119.042023 359 510ft 0kts
18-Sep-18 12:17 35.426383 -119.042216 276 510ft 3kts
18-Sep-18 12:18 35.426257 -119.045425 236 510ft 5kts
18-Sep-18 12:19 35.426164 -119.045496 181 510ft 0kts
18-Sep-18 12:20 35.426156 -119.045496 181 510ft 0kts
18-Sep-18 12:21 35.426148 -119.045496 180 510ft 0kts
18-Sep-18 12:22 35.426146 -119.045496 179 510ft 0kts
18-Sep-18 12:23 35.426369 -119.047134 314 510ft 29kts
18-Sep-18 12:24 35.438038 -119.063898 309 1228ft 81kts
18-Sep-18 12:25 35.434252 -119.089415 224 1851ft 120kts
18-Sep-18 12:26 35.408936 -119.109791 210 2439ft 107kts
18-Sep-18 12:27 35.383667 -119.129396 226 3014ft 108kts
18-Sep-18 12:28 35.364401 -119.159690 233 3740ft 108kts
18-Sep-18 12:29 35.341458 -119.185253 233 4449ft 111kts
18-Sep-18 12:30 35.323556 -119.216776 228 5231ft 106kts
18-Sep-18 12:31 35.308907 -119.247757 251 5909ft 102kts
18-Sep-18 12:32 35.306021 -119.282970 272 6525ft 105kts
18-Sep-18 12:33 35.295840 -119.317766 233 7023ft 109kts
18-Sep-18 12:34 35.274208 -119.346319 232 7390ft 122kts
18-Sep-18 12:35 35.263396 -119.382729 267 7854ft 108kts
18-Sep-18 12:36 35.257363 -119.417705 269 8388ft 108kts
18-Sep-18 12:37 35.254945 -119.457228 266 8550ft 125kts
18-Sep-18 12:38 35.245723 -119.499163 256 8722ft 127kts
18-Sep-18 12:39 35.231818 -119.542558 252 8617ft 143kts
18-Sep-18 12:40 35.211977 -119.584886 249 8749ft 144kts
18-Sep-18 12:41 35.200205 -119.632026 257 8689ft 152kts
18-Sep-18 12:42 35.184899 -119.678781 227 8749ft 156kts
18-Sep-18 12:43 35.158057 -119.718476 243 8560ft 155kts
18-Sep-18 12:44 35.135723 -119.761692 237 8421ft 150kts
18-Sep-18 12:45 35.112013 -119.799794 240 8533ft 137kts
18-Sep-18 12:46 35.103836 -119.843535 254 8496ft 138kts
18-Sep-18 12:47 35.085410 -119.883577 241 8537ft 135kts
18-Sep-18 12:48 35.079056 -119.929075 261 8337ft 143kts
18-Sep-18 12:49 35.074602 -119.977457 254 8080ft 143kts
18-Sep-18 12:50 35.057324 -120.021201 245 7953ft 142kts
18-Sep-18 12:51 35.035735 -120.055864 222 8109ft 139kts
18-Sep-18 12:52 35.014307 -120.090865 252 8445ft 124kts
18-Sep-18 12:53 35.003681 -120.132822 258 8486ft 132kts
18-Sep-18 12:54 34.996465 -120.176446 258 8543ft 120kts
18-Sep-18 12:55 34.987104 -120.208791 239 7747ft 101kts
18-Sep-18 12:56 34.974083 -120.239703 242 7125ft 107kts
18-Sep-18 12:57 34.958691 -120.272926 245 6214ft 120kts
18-Sep-18 12:58 34.943787 -120.312139 248 5041ft 127kts
18-Sep-18 12:59 34.933893 -120.352555 250 3507ft 116kts
18-Sep-18 13:00 34.925937 -120.390265 260 1991ft 107kts
18-Sep-18 13:01 34.915730 -120.419898 215 1128ft 78kts
18-Sep-18 13:02 34.896517 -120.404576 118 1383ft 94kts
18-Sep-18 13:03 34.874689 -120.414873 232 1132ft 86kts
18-Sep-18 13:04 34.882201 -120.432810 305 673ft 60kts
18-Sep-18 13:05 34.891681 -120.444537 313 352ft 59kts
18-Sep-18 13:06 34.896391 -120.449864 353 264ft 0kts
18-Sep-18 13:07 34.897161 -120.449991 359 264ft 0kts
18-Sep-18 13:08 34.897162 -120.449991 359 264ft 0kts
18-Sep-18 13:09 34.897962 -120.449995 5 264ft 11kts
18-Sep-18 13:10 34.899319 -120.449844 43 264ft 0kts
18-Sep-18 13:11 34.899319 -120.449843 43 264ft 0kts
18-Sep-18 13:12 34.899319 -120.449843 43 264ft 0kts
18-Sep-18 13:13 34.899319 -120.449843 43 264ft 0kts

Navigation Log

Ident Type
1. KBFL Airport
2. FLW Navaid
3. KSMX Airport